createdAt,value
2019-01-13T00:00:36.750Z,0
2019-01-13T00:01:46.617Z,0
2019-01-13T00:02:56.767Z,0
2019-01-13T00:04:06.877Z,0
2019-01-13T00:05:16.986Z,0
2019-01-13T00:06:27.126Z,0
2019-01-13T00:07:37.244Z,0
2019-01-13T00:08:47.386Z,0
2019-01-13T00:09:57.267Z,0
2019-01-13T00:11:07.396Z,0
2019-01-13T00:12:17.528Z,0
2019-01-13T00:13:27.700Z,0
2019-01-13T00:14:37.825Z,0
2019-01-13T00:15:47.977Z,0
2019-01-13T00:16:58.152Z,0
2019-01-13T00:18:08.275Z,0
2019-01-13T00:19:18.406Z,0
2019-01-13T00:20:28.544Z,0
2019-01-13T00:21:38.713Z,0
2019-01-13T00:22:48.874Z,0
2019-01-13T00:23:59.031Z,0
2019-01-13T00:25:09.161Z,0
2019-01-13T00:26:19.292Z,0
2019-01-13T00:27:29.432Z,0
2019-01-13T00:28:39.199Z,0
2019-01-13T00:29:49.326Z,0
2019-01-13T00:30:59.470Z,0
2019-01-13T00:32:09.595Z,0
2019-01-13T00:33:19.760Z,0
2019-01-13T00:34:29.918Z,0
2019-01-13T00:35:40.046Z,0
2019-01-13T00:36:49.915Z,0
2019-01-13T00:38:00.051Z,0
2019-01-13T00:39:10.172Z,0
2019-01-13T00:40:20.322Z,0
2019-01-13T00:41:30.443Z,0
2019-01-13T00:42:40.561Z,0
2019-01-13T00:43:50.697Z,0
2019-01-13T00:45:00.828Z,0
2019-01-13T00:46:10.952Z,0
2019-01-13T00:47:20.707Z,0
2019-01-13T00:48:30.602Z,0
2019-01-13T00:49:40.721Z,0
2019-01-13T00:50:50.841Z,0
2019-01-13T00:52:01.023Z,0
2019-01-13T00:53:11.167Z,0
2019-01-13T00:54:21.291Z,0
2019-01-13T00:55:31.153Z,0
2019-01-13T00:56:41.290Z,0
2019-01-13T00:57:51.460Z,0
2019-01-13T00:59:01.562Z,0
2019-01-13T01:00:11.425Z,0
2019-01-13T01:01:21.178Z,0
2019-01-13T01:02:31.289Z,0
2019-01-13T01:03:41.458Z,0
2019-01-13T01:04:51.577Z,0
2019-01-13T01:06:01.449Z,0
2019-01-13T01:07:11.577Z,0
2019-01-13T01:08:21.685Z,0
2019-01-13T01:09:31.825Z,0
2019-01-13T01:10:41.957Z,0
2019-01-13T01:11:52.066Z,0
2019-01-13T01:13:02.193Z,0
2019-01-13T01:14:12.315Z,0
2019-01-13T01:15:22.456Z,0
2019-01-13T01:16:32.587Z,0
2019-01-13T01:17:42.693Z,0
2019-01-13T01:18:52.810Z,0
2019-01-13T01:20:02.928Z,0
2019-01-13T01:21:13.038Z,0
2019-01-13T01:22:23.146Z,0
2019-01-13T01:23:33.270Z,0
2019-01-13T01:24:43.368Z,0
2019-01-13T01:25:53.482Z,0
2019-01-13T01:27:03.594Z,0
2019-01-13T01:28:13.714Z,0
2019-01-13T01:29:23.551Z,0
2019-01-13T01:30:40.600Z,0
2019-01-13T01:31:50.710Z,0
2019-01-13T01:33:00.814Z,0
2019-01-13T01:34:10.930Z,0
2019-01-13T01:35:21.058Z,0
2019-01-13T01:36:31.190Z,0
2019-01-13T01:37:41.326Z,0
2019-01-13T01:38:51.446Z,0
2019-01-13T01:40:01.575Z,0
2019-01-13T01:41:11.688Z,0
2019-01-13T01:42:21.816Z,0
2019-01-13T01:43:31.937Z,0
2019-01-13T01:44:42.072Z,0
2019-01-13T01:45:52.187Z,0
2019-01-13T01:47:02.056Z,0
2019-01-13T01:48:12.180Z,0
2019-01-13T01:49:22.293Z,0
2019-01-13T01:50:32.401Z,0
2019-01-13T01:51:42.520Z,0
2019-01-13T01:52:52.657Z,0
2019-01-13T01:54:02.846Z,0
2019-01-13T01:55:12.946Z,0
2019-01-13T01:56:23.091Z,0
2019-01-13T01:57:33.210Z,0
2019-01-13T01:58:43.326Z,0
2019-01-13T01:59:53.458Z,0
2019-01-13T02:01:03.552Z,0
2019-01-13T02:02:13.672Z,0
2019-01-13T02:03:23.825Z,0
2019-01-13T02:04:34.040Z,0
2019-01-13T02:05:44.286Z,0
2019-01-13T02:06:54.433Z,0
2019-01-13T02:08:04.645Z,0
2019-01-13T02:09:14.757Z,0
2019-01-13T02:10:24.911Z,0
2019-01-13T02:11:35.031Z,0
2019-01-13T02:12:45.149Z,0
2019-01-13T02:13:55.015Z,0
2019-01-13T02:15:05.153Z,0
2019-01-13T02:16:15.297Z,0
2019-01-13T02:17:25.151Z,0
2019-01-13T02:18:35.260Z,0
2019-01-13T02:19:44.776Z,0
2019-01-13T02:20:54.913Z,0
2019-01-13T02:22:05.038Z,0
2019-01-13T02:23:14.910Z,0
2019-01-13T02:24:25.014Z,0
2019-01-13T02:25:35.148Z,0
2019-01-13T02:26:45.267Z,0
2019-01-13T02:27:55.387Z,0
2019-01-13T02:29:05.500Z,0
2019-01-13T02:30:15.617Z,0
2019-01-13T02:31:25.770Z,0
2019-01-13T02:32:35.904Z,0
2019-01-13T02:33:46.034Z,0
2019-01-13T02:34:56.159Z,0
2019-01-13T02:36:06.287Z,0
2019-01-13T02:37:16.388Z,0
2019-01-13T02:38:26.531Z,0
2019-01-13T02:39:36.649Z,0
2019-01-13T02:40:46.758Z,0
2019-01-13T02:41:56.873Z,0
2019-01-13T02:43:07.020Z,0
2019-01-13T02:44:17.155Z,0
2019-01-13T02:45:27.266Z,0
2019-01-13T02:46:37.393Z,0
2019-01-13T02:47:47.576Z,0
2019-01-13T02:48:57.939Z,0
2019-01-13T02:50:08.037Z,0
2019-01-13T02:51:18.174Z,0
2019-01-13T02:52:28.278Z,0
2019-01-13T02:53:38.379Z,0
2019-01-13T02:54:48.504Z,0
2019-01-13T02:55:58.631Z,0
2019-01-13T02:57:08.769Z,0
2019-01-13T02:58:18.870Z,0
2019-01-13T02:59:29.005Z,0
2019-01-13T03:00:39.128Z,0
2019-01-13T03:01:49.246Z,0
2019-01-13T03:02:59.456Z,0
2019-01-13T03:04:09.564Z,0
2019-01-13T03:05:19.475Z,0
2019-01-13T03:06:29.671Z,0
2019-01-13T03:07:39.802Z,0
2019-01-13T03:08:49.938Z,0
2019-01-13T03:10:00.032Z,0
2019-01-13T03:11:10.169Z,0
2019-01-13T03:12:20.281Z,0
2019-01-13T03:13:30.403Z,0
2019-01-13T03:14:40.517Z,0
2019-01-13T03:15:50.671Z,0
2019-01-13T03:17:00.771Z,0
2019-01-13T03:18:10.900Z,0
2019-01-13T03:19:21.062Z,0
2019-01-13T03:20:31.248Z,0
2019-01-13T03:21:41.362Z,0
2019-01-13T03:22:51.126Z,0
2019-01-13T03:24:01.234Z,0
2019-01-13T03:25:12.089Z,0
2019-01-13T03:26:22.345Z,0
2019-01-13T03:27:32.224Z,0
2019-01-13T03:28:42.355Z,0
2019-01-13T03:29:52.445Z,0
2019-01-13T03:31:15.840Z,0
2019-01-13T03:32:25.989Z,0
2019-01-13T03:33:36.121Z,0
2019-01-13T03:34:46.225Z,0
2019-01-13T03:35:56.345Z,0
2019-01-13T03:37:06.451Z,0
2019-01-13T03:38:16.552Z,0
2019-01-13T03:39:26.754Z,0
2019-01-13T03:40:36.894Z,0
2019-01-13T03:41:47.022Z,0
2019-01-13T03:42:57.156Z,0
2019-01-13T03:44:07.257Z,0
2019-01-13T03:45:17.389Z,0
2019-01-13T03:46:27.275Z,0
2019-01-13T03:47:37.380Z,0
2019-01-13T03:48:47.519Z,0
2019-01-13T03:49:57.649Z,0
2019-01-13T03:51:07.775Z,0
2019-01-13T03:52:17.885Z,0
2019-01-13T03:53:27.989Z,0
2019-01-13T03:54:38.097Z,0
2019-01-13T03:55:48.212Z,0
2019-01-13T03:56:58.320Z,0
2019-01-13T03:58:08.440Z,0
2019-01-13T03:59:18.561Z,0
2019-01-13T04:00:28.728Z,0
2019-01-13T04:01:38.867Z,0
2019-01-13T04:02:48.962Z,0
2019-01-13T04:03:59.082Z,0
2019-01-13T04:05:09.825Z,0
2019-01-13T04:06:19.966Z,0
2019-01-13T04:07:30.079Z,0
2019-01-13T04:08:40.255Z,0
2019-01-13T04:09:50.386Z,0
2019-01-13T04:11:00.547Z,0
2019-01-13T04:12:10.655Z,0
2019-01-13T04:13:20.767Z,0
2019-01-13T04:14:30.881Z,0
2019-01-13T04:15:41.009Z,0
2019-01-13T04:16:51.116Z,0
2019-01-13T04:18:01.260Z,0
2019-01-13T04:19:11.383Z,0
2019-01-13T04:20:21.495Z,0
2019-01-13T04:21:31.645Z,0
2019-01-13T04:22:41.742Z,0
2019-01-13T04:23:51.874Z,0
2019-01-13T04:25:01.975Z,0
2019-01-13T04:26:12.079Z,0
2019-01-13T04:27:21.951Z,0
2019-01-13T04:28:32.045Z,0
2019-01-13T04:29:42.147Z,0
2019-01-13T04:30:52.254Z,0
2019-01-13T04:32:02.370Z,0
2019-01-13T04:33:12.475Z,0
2019-01-13T04:34:22.571Z,0
2019-01-13T04:35:32.681Z,0
2019-01-13T04:36:42.804Z,0
2019-01-13T04:37:52.923Z,0
2019-01-13T04:39:03.100Z,0
2019-01-13T04:40:13.201Z,0
2019-01-13T04:41:23.347Z,0
2019-01-13T04:42:33.476Z,0
2019-01-13T04:43:43.598Z,0
2019-01-13T04:44:53.712Z,0
2019-01-13T04:46:03.830Z,0
2019-01-13T04:47:13.961Z,0
2019-01-13T04:48:24.079Z,0
2019-01-13T04:49:34.240Z,0
2019-01-13T04:50:44.355Z,0
2019-01-13T04:51:54.464Z,0
2019-01-13T04:53:04.805Z,0
2019-01-13T04:54:14.934Z,0
2019-01-13T04:55:25.041Z,0
2019-01-13T04:56:34.891Z,0
2019-01-13T04:57:45.010Z,0
2019-01-13T04:58:55.152Z,0
2019-01-13T05:00:05.257Z,0
2019-01-13T05:01:15.381Z,0
2019-01-13T05:02:25.730Z,0
2019-01-13T05:03:35.846Z,0
2019-01-13T05:04:45.966Z,0
2019-01-13T05:05:56.082Z,0
2019-01-13T05:07:05.949Z,0
2019-01-13T05:08:16.061Z,0
2019-01-13T05:09:26.164Z,0
2019-01-13T05:10:36.299Z,0
2019-01-13T05:11:46.409Z,0
2019-01-13T05:12:56.256Z,0
2019-01-13T05:14:06.594Z,0
2019-01-13T05:15:16.693Z,0
2019-01-13T05:16:26.830Z,0
2019-01-13T05:17:38.710Z,0
2019-01-13T05:18:48.824Z,0
2019-01-13T05:19:58.950Z,0
2019-01-13T05:21:09.318Z,0
2019-01-13T05:22:19.425Z,0
2019-01-13T05:23:29.530Z,0
2019-01-13T05:24:39.846Z,0
2019-01-13T05:25:49.974Z,0
2019-01-13T05:27:00.070Z,0
2019-01-13T05:28:10.174Z,0
2019-01-13T05:29:20.037Z,0
2019-01-13T05:30:30.152Z,0
2019-01-13T05:31:46.880Z,0
2019-01-13T05:32:56.987Z,0
2019-01-13T05:34:07.110Z,0
2019-01-13T05:35:17.231Z,0
2019-01-13T05:36:27.367Z,0
2019-01-13T05:37:37.473Z,0
2019-01-13T05:38:47.599Z,0
2019-01-13T05:39:57.731Z,0
2019-01-13T05:41:07.836Z,0
2019-01-13T05:42:17.950Z,0
2019-01-13T05:43:28.051Z,0
2019-01-13T05:44:38.157Z,0
2019-01-13T05:45:48.287Z,0
2019-01-13T05:46:58.409Z,0
2019-01-13T05:48:08.521Z,0
2019-01-13T05:49:18.628Z,0
2019-01-13T05:50:28.738Z,0
2019-01-13T05:51:38.602Z,0
2019-01-13T05:52:48.755Z,0
2019-01-13T05:53:58.865Z,0
2019-01-13T05:55:08.989Z,0
2019-01-13T05:56:19.109Z,0
2019-01-13T05:57:29.225Z,0
2019-01-13T05:58:39.343Z,0
2019-01-13T05:59:49.437Z,0
2019-01-13T06:00:59.536Z,0
2019-01-13T06:02:09.660Z,0
2019-01-13T06:03:19.789Z,0
2019-01-13T06:04:29.891Z,0
2019-01-13T06:05:39.993Z,0
2019-01-13T06:06:50.099Z,0
2019-01-13T06:08:00.202Z,0
2019-01-13T06:09:10.329Z,0
2019-01-13T06:10:20.430Z,0
2019-01-13T06:11:30.547Z,0
2019-01-13T06:12:40.657Z,0
2019-01-13T06:13:50.748Z,0
2019-01-13T06:15:00.853Z,0
2019-01-13T06:16:10.700Z,0
2019-01-13T06:17:20.915Z,0
2019-01-13T06:18:31.031Z,0
2019-01-13T06:19:41.142Z,0
2019-01-13T06:20:51.237Z,0
2019-01-13T06:22:01.558Z,0
2019-01-13T06:23:11.662Z,0
2019-01-13T06:24:21.782Z,0
2019-01-13T06:25:31.903Z,0
2019-01-13T06:26:42.014Z,0
2019-01-13T06:27:52.111Z,0
2019-01-13T06:29:02.204Z,0
2019-01-13T06:30:13.786Z,0
2019-01-13T06:31:23.904Z,0
2019-01-13T06:32:34.012Z,0
2019-01-13T06:33:44.106Z,0
2019-01-13T06:34:54.220Z,0
2019-01-13T06:36:04.069Z,0
2019-01-13T06:37:14.201Z,0
2019-01-13T06:38:24.322Z,0
2019-01-13T06:39:34.419Z,0
2019-01-13T06:40:44.522Z,0
2019-01-13T06:41:54.656Z,0
2019-01-13T06:43:04.806Z,0
2019-01-13T06:44:14.919Z,0
2019-01-13T06:45:25.030Z,0
2019-01-13T06:46:35.353Z,0
2019-01-13T06:47:45.468Z,0
2019-01-13T06:48:55.612Z,0
2019-01-13T06:50:06.331Z,0
2019-01-13T06:51:16.438Z,0
2019-01-13T06:52:26.563Z,0
2019-01-13T06:53:36.687Z,0
2019-01-13T06:54:46.796Z,0
2019-01-13T06:55:56.910Z,0
2019-01-13T06:57:07.020Z,0
2019-01-13T06:58:17.117Z,0
2019-01-13T06:59:27.213Z,0
2019-01-13T07:00:37.330Z,0
2019-01-13T07:01:47.439Z,0
2019-01-13T07:02:57.557Z,0
2019-01-13T07:04:07.655Z,0
2019-01-13T07:05:17.841Z,0
2019-01-13T07:06:27.940Z,0
2019-01-13T07:07:38.028Z,0
2019-01-13T07:08:48.146Z,0
2019-01-13T07:09:58.250Z,0
2019-01-13T07:11:08.367Z,0
2019-01-13T07:12:18.485Z,0
2019-01-13T07:13:28.638Z,0
2019-01-13T07:14:38.502Z,0
2019-01-13T07:15:48.625Z,5
2019-01-13T07:16:58.472Z,5
2019-01-13T07:18:08.592Z,5
2019-01-13T07:19:18.713Z,5
2019-01-13T07:20:28.816Z,0
2019-01-13T07:21:38.916Z,0
2019-01-13T07:22:50.291Z,0
2019-01-13T07:24:00.433Z,0
2019-01-13T07:25:10.542Z,0
2019-01-13T07:26:20.679Z,0
2019-01-13T07:27:30.809Z,0
2019-01-13T07:28:40.658Z,0
2019-01-13T07:29:50.763Z,0
2019-01-13T07:31:00.876Z,0
2019-01-13T07:32:17.954Z,0
2019-01-13T07:33:28.094Z,0
2019-01-13T07:34:37.979Z,0
2019-01-13T07:35:48.094Z,0
2019-01-13T07:36:58.203Z,0
2019-01-13T07:38:08.304Z,0
2019-01-13T07:39:18.424Z,0
2019-01-13T07:40:28.536Z,0
2019-01-13T07:41:38.678Z,5
2019-01-13T07:42:48.781Z,5
2019-01-13T07:43:58.907Z,5
2019-01-13T07:45:09.043Z,5
2019-01-13T07:46:19.153Z,5
2019-01-13T07:47:29.254Z,5
2019-01-13T07:48:39.356Z,5
2019-01-13T07:49:49.472Z,5
2019-01-13T07:50:59.576Z,10
2019-01-13T07:52:09.721Z,10
2019-01-13T07:53:19.853Z,10
2019-01-13T07:54:29.959Z,10
2019-01-13T07:55:40.071Z,10
2019-01-13T07:56:50.199Z,10
2019-01-13T07:58:00.065Z,10
2019-01-13T07:59:10.365Z,10
2019-01-13T08:00:21.989Z,15
2019-01-13T08:01:32.112Z,15
2019-01-13T08:02:42.228Z,15
2019-01-13T08:03:52.343Z,10
2019-01-13T08:05:02.565Z,10
2019-01-13T08:06:12.714Z,10
2019-01-13T08:07:22.570Z,10
2019-01-13T08:08:32.687Z,10
2019-01-13T08:09:42.817Z,10
2019-01-13T08:10:52.938Z,10
2019-01-13T08:12:03.051Z,15
2019-01-13T08:13:13.189Z,15
2019-01-13T08:14:23.053Z,15
2019-01-13T08:15:33.183Z,20
2019-01-13T08:16:43.290Z,20
2019-01-13T08:17:53.403Z,20
2019-01-13T08:19:03.529Z,20
2019-01-13T08:20:13.649Z,25
2019-01-13T08:21:23.779Z,25
2019-01-13T08:22:33.893Z,25
2019-01-13T08:23:44.032Z,30
2019-01-13T08:24:54.166Z,30
2019-01-13T08:26:04.289Z,30
2019-01-13T08:27:14.416Z,30
2019-01-13T08:28:24.532Z,30
2019-01-13T08:29:35.222Z,30
2019-01-13T08:30:45.083Z,35
2019-01-13T08:31:55.198Z,35
2019-01-13T08:33:05.358Z,35
2019-01-13T08:34:15.493Z,35
2019-01-13T08:35:25.734Z,35
2019-01-13T08:36:35.843Z,35
2019-01-13T08:37:45.985Z,35
2019-01-13T08:38:56.117Z,35
2019-01-13T08:40:06.243Z,40
2019-01-13T08:41:16.348Z,45
2019-01-13T08:42:26.106Z,40
2019-01-13T08:43:36.230Z,45
2019-01-13T08:44:46.367Z,45
2019-01-13T08:45:59.794Z,45
2019-01-13T08:47:09.926Z,45
2019-01-13T08:48:20.099Z,45
2019-01-13T08:49:31.628Z,40
2019-01-13T08:50:41.833Z,35
2019-01-13T08:51:51.981Z,30
2019-01-13T08:53:02.129Z,30
2019-01-13T08:54:12.270Z,25
2019-01-13T08:55:22.611Z,25
2019-01-13T08:56:32.728Z,30
2019-01-13T08:57:42.867Z,40
2019-01-13T08:58:52.767Z,35
2019-01-13T09:00:02.639Z,30
2019-01-13T09:01:12.748Z,40
2019-01-13T09:02:22.887Z,40
2019-01-13T09:03:33.035Z,45
2019-01-13T09:04:43.211Z,45
2019-01-13T09:05:53.365Z,50
2019-01-13T09:07:03.480Z,50
2019-01-13T09:08:13.596Z,45
2019-01-13T09:09:23.484Z,45
2019-01-13T09:10:33.407Z,45
2019-01-13T09:11:43.545Z,45
2019-01-13T09:12:59.250Z,40
2019-01-13T09:14:09.368Z,40
2019-01-13T09:15:19.487Z,45
2019-01-13T09:16:29.657Z,60
2019-01-13T09:17:39.784Z,80
2019-01-13T09:18:49.931Z,90
2019-01-13T09:20:00.086Z,100
2019-01-13T09:21:10.284Z,105
2019-01-13T09:22:20.413Z,100
2019-01-13T09:23:30.617Z,85
2019-01-13T09:24:40.729Z,80
2019-01-13T09:25:50.871Z,80
2019-01-13T09:27:00.691Z,70
2019-01-13T09:28:11.026Z,65
2019-01-13T09:29:21.180Z,60
2019-01-13T09:30:31.301Z,50
2019-01-13T09:31:41.442Z,50
2019-01-13T09:32:51.572Z,50
2019-01-13T09:34:01.727Z,60
2019-01-13T09:35:11.898Z,60
2019-01-13T09:36:22.078Z,55
2019-01-13T09:37:32.249Z,55
2019-01-13T09:38:43.427Z,55
2019-01-13T09:39:53.555Z,55
2019-01-13T09:41:03.719Z,60
2019-01-13T09:42:13.894Z,60
2019-01-13T09:43:24.043Z,60
2019-01-13T09:44:34.214Z,50
2019-01-13T09:45:44.548Z,50
2019-01-13T09:46:54.706Z,60
2019-01-13T09:48:04.654Z,60
2019-01-13T09:49:14.835Z,65
2019-01-13T09:50:24.960Z,55
2019-01-13T09:51:35.141Z,60
2019-01-13T09:52:45.321Z,65
2019-01-13T09:53:55.477Z,60
2019-01-13T09:55:05.640Z,55
2019-01-13T09:56:15.819Z,45
2019-01-13T09:57:25.978Z,45
2019-01-13T09:58:37.662Z,50
2019-01-13T09:59:49.762Z,50
2019-01-13T10:01:00.116Z,40
2019-01-13T10:02:10.279Z,40
2019-01-13T10:03:20.432Z,45
2019-01-13T10:04:30.635Z,55
2019-01-13T10:05:40.804Z,60
2019-01-13T10:06:50.999Z,55
2019-01-13T10:08:01.185Z,50
2019-01-13T10:09:11.341Z,50
2019-01-13T10:10:21.508Z,60
2019-01-13T10:11:31.661Z,60
2019-01-13T10:12:41.817Z,50
2019-01-13T10:13:52.011Z,45
2019-01-13T10:15:02.154Z,45
2019-01-13T10:16:12.325Z,55
2019-01-13T10:17:22.475Z,50
2019-01-13T10:18:32.623Z,50
2019-01-13T10:19:42.788Z,55
2019-01-13T10:20:52.951Z,50
2019-01-13T10:22:03.087Z,50
2019-01-13T10:23:13.245Z,40
2019-01-13T10:24:23.369Z,40
2019-01-13T10:25:33.533Z,40
2019-01-13T10:26:43.668Z,45
2019-01-13T10:27:53.810Z,40
2019-01-13T10:29:03.959Z,35
2019-01-13T10:30:14.333Z,40
2019-01-13T10:31:24.516Z,40
2019-01-13T10:32:34.646Z,35
2019-01-13T10:33:44.860Z,30
2019-01-13T10:34:55.018Z,30
2019-01-13T10:36:05.166Z,30
2019-01-13T10:37:15.326Z,40
2019-01-13T10:38:25.722Z,45
2019-01-13T10:39:35.967Z,45
2019-01-13T10:40:46.154Z,55
2019-01-13T10:41:56.283Z,50
2019-01-13T10:43:06.102Z,60
2019-01-13T10:44:16.283Z,70
2019-01-13T10:45:26.503Z,85
2019-01-13T10:46:36.715Z,85
2019-01-13T10:47:46.870Z,80
2019-01-13T10:48:57.004Z,70
2019-01-13T10:50:07.165Z,55
2019-01-13T10:51:17.330Z,65
2019-01-13T10:52:27.497Z,65
2019-01-13T10:53:37.428Z,75
2019-01-13T10:54:47.579Z,70
2019-01-13T10:55:58.136Z,75
2019-01-13T10:57:08.301Z,80
2019-01-13T10:58:18.495Z,75
2019-01-13T10:59:28.634Z,65
2019-01-13T11:00:38.794Z,70
2019-01-13T11:01:48.955Z,75
2019-01-13T11:03:06.742Z,65
2019-01-13T11:04:16.896Z,60
2019-01-13T11:05:27.047Z,45
2019-01-13T11:06:36.827Z,50
2019-01-13T11:07:47.000Z,60
2019-01-13T11:08:57.176Z,75
2019-01-13T11:10:07.385Z,75
2019-01-13T11:11:17.558Z,80
2019-01-13T11:12:27.742Z,80
2019-01-13T11:13:38.818Z,80
2019-01-13T11:14:48.835Z,85
2019-01-13T11:15:58.992Z,75
2019-01-13T11:17:08.908Z,90
2019-01-13T11:18:19.078Z,85
2019-01-13T11:19:29.227Z,95
2019-01-13T11:20:39.412Z,85
2019-01-13T11:21:49.591Z,85
2019-01-13T11:22:59.771Z,80
2019-01-13T11:24:09.989Z,70
2019-01-13T11:25:20.147Z,85
2019-01-13T11:26:30.293Z,75
2019-01-13T11:27:40.456Z,80
2019-01-13T11:28:50.739Z,80
2019-01-13T11:30:00.964Z,75
2019-01-13T11:31:11.154Z,90
2019-01-13T11:32:21.299Z,70
2019-01-13T11:33:31.920Z,60
2019-01-13T11:34:42.106Z,50
2019-01-13T11:35:52.274Z,45
2019-01-13T11:37:02.429Z,45
2019-01-13T11:38:12.617Z,40
2019-01-13T11:39:22.778Z,45
2019-01-13T11:40:32.937Z,45
2019-01-13T11:41:43.098Z,45
2019-01-13T11:42:53.258Z,60
2019-01-13T11:44:03.418Z,95
2019-01-13T11:45:13.575Z,85
2019-01-13T11:46:23.742Z,60
2019-01-13T11:47:33.915Z,45
2019-01-13T11:48:44.093Z,50
2019-01-13T11:49:54.252Z,55
2019-01-13T11:51:04.473Z,55
2019-01-13T11:52:14.610Z,50
2019-01-13T11:53:24.752Z,55
2019-01-13T11:54:34.928Z,55
2019-01-13T11:55:45.097Z,60
2019-01-13T11:56:55.273Z,65
2019-01-13T11:58:05.451Z,65
2019-01-13T11:59:15.605Z,75
2019-01-13T12:00:25.755Z,55
2019-01-13T12:01:35.923Z,50
2019-01-13T12:02:46.085Z,45
2019-01-13T12:03:56.277Z,35
2019-01-13T12:05:06.886Z,40
2019-01-13T12:06:17.155Z,45
2019-01-13T12:07:28.857Z,45
2019-01-13T12:08:39.221Z,50
2019-01-13T12:09:49.388Z,45
2019-01-13T12:10:59.593Z,40
2019-01-13T12:12:09.745Z,50
2019-01-13T12:13:19.674Z,50
2019-01-13T12:14:29.825Z,55
2019-01-13T12:15:40.000Z,55
2019-01-13T12:16:50.212Z,60
2019-01-13T12:18:00.402Z,60
2019-01-13T12:19:10.546Z,70
2019-01-13T12:20:20.723Z,80
2019-01-13T12:21:30.867Z,80
2019-01-13T12:22:41.044Z,70
2019-01-13T12:23:51.276Z,60
2019-01-13T12:25:01.412Z,70
2019-01-13T12:26:11.204Z,65
2019-01-13T12:27:21.403Z,75
2019-01-13T12:28:31.602Z,90
2019-01-13T12:29:41.769Z,95
2019-01-13T12:30:51.951Z,90
2019-01-13T12:32:02.096Z,80
2019-01-13T12:33:12.018Z,85
2019-01-13T12:34:23.215Z,85
2019-01-13T12:35:33.388Z,95
2019-01-13T12:36:43.918Z,105
2019-01-13T12:37:54.683Z,105
2019-01-13T12:39:04.877Z,105
2019-01-13T12:40:15.087Z,110
2019-01-13T12:41:25.243Z,115
2019-01-13T12:42:35.405Z,105
2019-01-13T12:43:45.553Z,115
2019-01-13T12:44:55.726Z,105
2019-01-13T12:46:05.892Z,110
2019-01-13T12:47:15.985Z,110
2019-01-13T12:48:25.902Z,85
2019-01-13T12:49:36.088Z,85
2019-01-13T12:50:46.261Z,85
2019-01-13T12:51:56.390Z,85
2019-01-13T12:53:06.567Z,80
2019-01-13T12:54:16.715Z,85
2019-01-13T12:55:26.870Z,70
2019-01-13T12:56:37.048Z,80
2019-01-13T12:57:47.453Z,80
2019-01-13T12:58:57.613Z,65
2019-01-13T13:00:07.809Z,65
2019-01-13T13:01:18.006Z,65
2019-01-13T13:02:28.149Z,65
2019-01-13T13:03:41.601Z,55
2019-01-13T13:04:51.534Z,60
2019-01-13T13:06:01.737Z,50
2019-01-13T13:07:11.871Z,50
2019-01-13T13:08:22.574Z,50
2019-01-13T13:09:32.910Z,45
2019-01-13T13:10:43.082Z,50
2019-01-13T13:11:53.312Z,45
2019-01-13T13:13:03.471Z,45
2019-01-13T13:14:13.648Z,40
2019-01-13T13:15:23.818Z,45
2019-01-13T13:16:33.997Z,45
2019-01-13T13:17:44.175Z,45
2019-01-13T13:18:54.370Z,40
2019-01-13T13:20:04.539Z,30
2019-01-13T13:21:15.880Z,25
2019-01-13T13:22:25.783Z,30
2019-01-13T13:23:35.983Z,30
2019-01-13T13:24:46.133Z,30
2019-01-13T13:25:56.586Z,30
2019-01-13T13:27:06.711Z,25
2019-01-13T13:28:16.878Z,25
2019-01-13T13:29:27.052Z,20
2019-01-13T13:30:37.207Z,25
2019-01-13T13:31:47.390Z,30
2019-01-13T13:32:57.533Z,30
2019-01-13T13:34:07.722Z,35
2019-01-13T13:35:17.891Z,30
2019-01-13T13:36:27.816Z,25
2019-01-13T13:37:38.000Z,25
2019-01-13T13:38:48.138Z,25
2019-01-13T13:39:58.300Z,20
2019-01-13T13:41:08.456Z,20
2019-01-13T13:42:18.675Z,25
2019-01-13T13:43:28.566Z,25
2019-01-13T13:44:38.764Z,25
2019-01-13T13:45:48.928Z,20
2019-01-13T13:46:59.075Z,20
2019-01-13T13:48:08.969Z,20
2019-01-13T13:49:19.130Z,15
2019-01-13T13:50:29.321Z,20
2019-01-13T13:51:39.502Z,20
2019-01-13T13:52:49.896Z,25
2019-01-13T13:54:00.140Z,35
2019-01-13T13:55:10.349Z,45
2019-01-13T13:56:20.526Z,45
2019-01-13T13:57:30.686Z,45
2019-01-13T13:58:40.985Z,50
2019-01-13T13:59:51.256Z,55
2019-01-13T14:01:01.443Z,45
2019-01-13T14:02:11.675Z,50
2019-01-13T14:03:21.857Z,65
2019-01-13T14:04:32.045Z,70
2019-01-13T14:05:42.246Z,65
2019-01-13T14:06:52.449Z,70
2019-01-13T14:08:02.595Z,75
2019-01-13T14:09:12.814Z,75
2019-01-13T14:10:23.027Z,60
2019-01-13T14:11:33.240Z,50
2019-01-13T14:12:43.605Z,35
2019-01-13T14:13:53.536Z,30
2019-01-13T14:15:03.731Z,35
2019-01-13T14:16:13.974Z,25
2019-01-13T14:17:24.133Z,25
2019-01-13T14:18:34.335Z,25
2019-01-13T14:19:44.622Z,35
2019-01-13T14:20:54.817Z,45
2019-01-13T14:22:04.980Z,50
2019-01-13T14:23:15.174Z,45
2019-01-13T14:24:26.635Z,30
2019-01-13T14:25:37.023Z,20
2019-01-13T14:26:47.252Z,20
2019-01-13T14:27:57.469Z,15
2019-01-13T14:29:07.667Z,20
2019-01-13T14:30:19.510Z,15
2019-01-13T14:31:29.697Z,10
2019-01-13T14:32:39.893Z,15
2019-01-13T14:33:55.436Z,15
2019-01-13T14:35:05.601Z,15
2019-01-13T14:36:15.784Z,15
2019-01-13T14:37:25.963Z,15
2019-01-13T14:38:35.810Z,20
2019-01-13T14:39:51.305Z,15
2019-01-13T14:41:01.500Z,25
2019-01-13T14:42:11.731Z,25
2019-01-13T14:43:22.875Z,25
2019-01-13T14:44:33.132Z,20
2019-01-13T14:45:43.329Z,20
2019-01-13T14:46:53.723Z,15
2019-01-13T14:48:03.663Z,10
2019-01-13T14:49:13.903Z,10
2019-01-13T14:50:24.934Z,10
2019-01-13T14:51:35.147Z,15
2019-01-13T14:52:46.852Z,10
2019-01-13T14:53:57.254Z,10
2019-01-13T14:55:07.450Z,10
2019-01-13T14:56:17.666Z,15
2019-01-13T14:57:27.875Z,10
2019-01-13T14:58:38.038Z,10
2019-01-13T14:59:48.252Z,10
2019-01-13T15:00:58.429Z,10
2019-01-13T15:02:08.594Z,10
2019-01-13T15:03:18.752Z,10
2019-01-13T15:04:28.912Z,10
2019-01-13T15:05:39.444Z,15
2019-01-13T15:06:49.616Z,25
2019-01-13T15:07:59.801Z,25
2019-01-13T15:09:10.007Z,20
2019-01-13T15:10:20.215Z,15
2019-01-13T15:11:30.414Z,10
2019-01-13T15:12:40.602Z,10
2019-01-13T15:13:50.791Z,10
2019-01-13T15:15:00.974Z,5
2019-01-13T15:16:12.694Z,5
2019-01-13T15:17:22.852Z,5
2019-01-13T15:18:33.052Z,5
2019-01-13T15:19:43.191Z,0
2019-01-13T15:20:53.394Z,0
2019-01-13T15:22:03.567Z,0
2019-01-13T15:23:13.449Z,0
2019-01-13T15:24:23.624Z,0
2019-01-13T15:25:33.878Z,0
2019-01-13T15:26:44.082Z,0
2019-01-13T15:27:54.265Z,0
2019-01-13T15:29:04.152Z,0
2019-01-13T15:30:14.332Z,0
2019-01-13T15:31:24.521Z,0
2019-01-13T15:32:34.698Z,0
2019-01-13T15:33:44.643Z,0
2019-01-13T15:34:55.089Z,0
2019-01-13T15:36:05.294Z,0
2019-01-13T15:37:15.521Z,0
2019-01-13T15:38:25.722Z,0
2019-01-13T15:39:35.679Z,0
2019-01-13T15:40:45.849Z,0
2019-01-13T15:41:56.060Z,0
2019-01-13T15:43:06.236Z,0
2019-01-13T15:44:16.509Z,0
2019-01-13T15:45:26.703Z,0
2019-01-13T15:46:36.893Z,0
2019-01-13T15:47:47.172Z,0
2019-01-13T15:48:57.381Z,0
2019-01-13T15:50:07.550Z,0
2019-01-13T15:51:17.707Z,0
2019-01-13T15:52:28.231Z,0
2019-01-13T15:53:38.441Z,0
2019-01-13T15:54:48.292Z,0
2019-01-13T15:55:58.485Z,0
2019-01-13T15:57:08.672Z,0
2019-01-13T15:58:18.856Z,0
2019-01-13T15:59:29.067Z,0
2019-01-13T16:00:39.482Z,0
2019-01-13T16:01:49.721Z,0
2019-01-13T16:02:59.949Z,0
2019-01-13T16:04:17.000Z,0
2019-01-13T16:05:27.213Z,0
2019-01-13T16:06:37.453Z,0
2019-01-13T16:07:47.610Z,0
2019-01-13T16:08:57.826Z,0
2019-01-13T16:10:07.994Z,0
2019-01-13T16:11:18.312Z,0
2019-01-13T16:12:28.467Z,0
2019-01-13T16:13:38.681Z,0
2019-01-13T16:14:48.886Z,0
2019-01-13T16:15:59.077Z,0
2019-01-13T16:17:09.276Z,0
2019-01-13T16:18:19.454Z,0
2019-01-13T16:19:29.304Z,0
2019-01-13T16:20:39.520Z,0
2019-01-13T16:21:49.697Z,0
2019-01-13T16:22:59.901Z,0
2019-01-13T16:24:10.095Z,0
2019-01-13T16:25:20.295Z,0
2019-01-13T16:26:30.528Z,0
2019-01-13T16:27:40.693Z,0
2019-01-13T16:28:51.126Z,0
2019-01-13T16:30:01.294Z,0
2019-01-13T16:31:11.481Z,0
2019-01-13T16:32:22.846Z,0
2019-01-13T16:33:33.078Z,0
2019-01-13T16:34:43.295Z,0
2019-01-13T16:35:53.246Z,0
2019-01-13T16:37:03.430Z,0
2019-01-13T16:38:14.131Z,0
2019-01-13T16:39:24.326Z,0
2019-01-13T16:40:34.523Z,0
2019-01-13T16:41:44.706Z,0
2019-01-13T16:42:54.920Z,0
2019-01-13T16:44:05.108Z,0
2019-01-13T16:45:15.384Z,0
2019-01-13T16:46:25.615Z,0
2019-01-13T16:47:35.838Z,0
2019-01-13T16:48:46.034Z,0
2019-01-13T16:49:56.223Z,0
2019-01-13T16:51:07.449Z,0
2019-01-13T16:52:17.744Z,0
2019-01-13T16:53:27.979Z,0
2019-01-13T16:54:38.200Z,0
2019-01-13T16:55:48.458Z,0
2019-01-13T16:56:58.742Z,0
2019-01-13T16:58:08.971Z,0
2019-01-13T16:59:19.250Z,0
2019-01-13T17:00:29.761Z,0
2019-01-13T17:01:39.966Z,0